Time;durP1;ratioP1;P1;durP2;ratioP2;P2;SDS_P1;SDS_P2;PMS_P1;PMS_P2;Temp;Humidity;BMP_temperature;BMP_pressure;BME280_temperature;BME280_humidity;BME280_pressure;Samples;Min_cycle;Max_cycle;Signal;HPM_P1;HPM_P2
2022/05/08 00:00:09;;;;;;;15.98;9.05;;;12.20;99.90;;;;;;4923586;29;20049;-87
2022/05/08 00:03:19;;;;;;;14.85;8.10;;;12.20;99.90;;;;;;4926398;29;20035;-86
2022/05/08 00:06:29;;;;;;;13.00;8.05;;;12.10;99.90;;;;;;4943572;29;20043;-87
2022/05/08 00:09:50;;;;;;;15.32;8.35;;;12.10;99.90;;;;;;4921332;29;20051;-84
2022/05/08 00:13:10;;;;;;;12.90;7.72;;;12.10;99.90;;;;;;4945039;28;20039;-84
2022/05/08 00:16:03;;;;;;;18.02;8.63;;;12.10;99.90;;;;;;4929359;29;20094;-84
2022/05/08 00:18:36;;;;;;;16.05;9.15;;;12.10;99.90;;;;;;4957435;28;20081;-84
2022/05/08 00:21:18;;;;;;;12.30;8.20;;;12.10;99.90;;;;;;4943607;28;20373;-83
2022/05/08 00:23:50;;;;;;;13.65;8.68;;;12.10;99.90;;;;;;4941094;28;20050;-84
2022/05/08 00:26:30;;;;;;;15.85;8.85;;;12.10;99.90;;;;;;4926278;29;20034;-85
2022/05/08 00:29:17;;;;;;;19.58;9.90;;;12.00;99.90;;;;;;4928936;29;20035;-85
2022/05/08 00:32:08;;;;;;;;;;;;;;;;;;;;;
2022/05/08 00:35:38;;;;;;;;;;;;;;;;;;;;;
2022/05/08 00:38:29;;;;;;;19.70;10.55;;;12.00;99.90;;;;;;4890326;29;20055;-85
2022/05/08 00:41:23;;;;;;;17.23;10.55;;;12.00;99.90;;;;;;4908250;29;20032;-86
2022/05/08 00:44:09;;;;;;;18.05;9.85;;;11.90;99.90;;;;;;4924284;29;20036;-85
2022/05/08 00:46:48;;;;;;;14.25;8.43;;;11.90;99.90;;;;;;4912798;29;20035;-86
2022/05/08 00:50:20;;;;;;;18.42;9.73;;;11.80;99.90;;;;;;4925165;29;20040;-86
2022/05/08 00:53:06;;;;;;;13.52;6.53;;;11.80;99.90;;;;;;4902106;29;20044;-86
2022/05/08 00:55:47;;;;;;;17.52;7.72;;;11.80;99.90;;;;;;4907795;29;20062;-85
2022/05/08 00:58:17;;;;;;;13.20;7.28;;;11.80;99.90;;;;;;4921103;29;20059;-84
2022/05/08 01:00:57;;;;;;;13.57;7.22;;;11.80;99.90;;;;;;4886304;29;20044;-84
2022/05/08 01:03:34;;;;;;;17.05;7.50;;;11.80;99.90;;;;;;4904065;29;20066;-86
2022/05/08 01:06:09;;;;;;;15.40;6.85;;;11.70;99.90;;;;;;4898460;29;20036;-86
2022/05/08 01:08:54;;;;;;;13.50;5.32;;;11.70;99.90;;;;;;4890851;29;20032;-85
2022/05/08 01:11:50;;;;;;;13.93;6.28;;;11.70;99.90;;;;;;4871145;29;20044;-86
2022/05/08 01:14:35;;;;;;;18.63;7.30;;;11.70;99.90;;;;;;4898629;29;20032;-86
2022/05/08 01:17:12;;;;;;;14.02;5.70;;;11.60;99.90;;;;;;4901188;29;20577;-86
2022/05/08 01:20:54;;;;;;;12.38;5.50;;;11.50;99.90;;;;;;4882407;29;20045;-85
2022/05/08 01:23:52;;;;;;;9.48;4.10;;;11.50;99.90;;;;;;4876035;29;20520;-86
2022/05/08 01:26:30;;;;;;;16.92;5.32;;;11.50;99.90;;;;;;4877107;29;20534;-86
2022/05/08 01:32:30;;;;;;;21.90;6.05;;;11.40;99.90;;;;;;4925485;29;20062;-86
2022/05/08 01:35:19;;;;;;;19.92;4.97;;;11.40;99.90;;;;;;4949171;28;20039;-86
2022/05/08 01:38:53;;;;;;;18.23;4.82;;;11.40;99.90;;;;;;4942184;28;20038;-86
2022/05/08 01:42:02;;;;;;;;;;;;;;;;;;;;;
2022/05/08 01:45:08;;;;;;;14.20;4.40;;;11.30;99.90;;;;;;4940202;29;20473;-86
2022/05/08 01:48:32;;;;;;;;;;;;;;;;;;;;;
2022/05/08 01:51:45;;;;;;;18.75;3.78;;;11.30;99.90;;;;;;4945256;28;20031;-85
2022/05/08 01:54:28;;;;;;;18.40;4.25;;;11.20;99.90;;;;;;4936766;29;20043;-85
2022/05/08 01:57:22;;;;;;;17.02;3.88;;;11.20;99.90;;;;;;4922013;29;20059;-85
2022/05/08 02:00:27;;;;;;;;;;;;;;;;;;;;;
2022/05/08 02:03:09;;;;;;;23.42;5.45;;;11.10;99.90;;;;;;4919218;29;20032;-86
2022/05/08 02:05:53;;;;;;;11.55;3.22;;;11.10;99.90;;;;;;4922152;29;20032;-85
2022/05/08 02:11:51;;;;;;;12.38;2.85;;;11.00;99.90;;;;;;4908150;29;20130;-86
2022/05/08 02:14:51;;;;;;;18.13;3.90;;;11.00;99.90;;;;;;4934483;28;20051;-87
2022/05/08 02:17:37;;;;;;;18.38;3.20;;;10.90;99.90;;;;;;4908129;29;20052;-86
2022/05/08 02:20:16;;;;;;;21.27;4.45;;;10.90;99.90;;;;;;4892365;29;20040;-85
2022/05/08 02:22:43;;;;;;;25.17;4.95;;;10.90;99.90;;;;;;4921803;29;20412;-86
2022/05/08 02:25:15;;;;;;;22.27;4.78;;;10.90;99.90;;;;;;4906168;29;20040;-85
2022/05/08 02:27:44;;;;;;;23.48;3.92;;;10.90;99.90;;;;;;4906209;29;20062;-85
2022/05/08 02:30:28;;;;;;;21.33;3.88;;;10.80;99.90;;;;;;4915088;29;20020;-86
2022/05/08 02:33:03;;;;;;;17.13;3.85;;;10.80;99.90;;;;;;4940711;28;20040;-86
2022/05/08 02:36:21;;;;;;;17.33;3.10;;;10.80;99.90;;;;;;4907212;29;20020;-86
2022/05/08 02:39:57;;;;;;;;;;;;;;;;;;;;;
2022/05/08 02:42:38;;;;;;;18.02;3.40;;;10.70;99.90;;;;;;4932154;29;20036;-87
2022/05/08 02:46:09;;;;;;;;;;;;;;;;;;;;;
2022/05/08 02:49:02;;;;;;;21.30;3.25;;;10.70;99.90;;;;;;4927617;29;20047;-87
2022/05/08 02:58:32;;;;;;;23.52;4.15;;;10.60;99.90;;;;;;4915548;29;20046;-87
2022/05/08 03:07:23;;;;;;;;;;;;;;;;;;;;;
2022/05/08 03:14:25;;;;;;;19.30;3.85;;;10.50;99.90;;;;;;4801202;29;20502;-85
2022/05/08 03:16:58;;;;;;;16.67;2.97;;;10.50;99.90;;;;;;4808009;29;20042;-86
2022/05/08 03:19:25;;;;;;;20.92;3.33;;;10.40;99.90;;;;;;4869987;29;20029;-84
2022/05/08 03:21:52;;;;;;;20.40;3.63;;;10.40;99.90;;;;;;4899343;28;20122;-84
2022/05/08 03:24:28;;;;;;;18.83;3.33;;;10.40;99.90;;;;;;4942244;28;20042;-85
2022/05/08 03:26:56;;;;;;;18.58;2.42;;;10.30;99.90;;;;;;4957966;28;20022;-84
2022/05/08 03:29:25;;;;;;;18.95;2.85;;;10.30;99.90;;;;;;4945348;28;20034;-84
2022/05/08 03:32:02;;;;;;;21.73;3.72;;;10.30;99.90;;;;;;4926512;28;20030;-85
2022/05/08 03:34:31;;;;;;;16.13;2.80;;;10.30;99.90;;;;;;4924620;28;20047;-85
2022/05/08 03:37:04;;;;;;;13.73;2.28;;;10.20;99.90;;;;;;4938971;28;20035;-85
2022/05/08 03:39:33;;;;;;;18.88;3.83;;;10.20;99.90;;;;;;4949706;28;20051;-85
2022/05/08 03:42:15;;;;;;;;;;;;;;;;;;;;;
2022/05/08 03:45:08;;;;;;;15.98;2.92;;;10.10;99.90;;;;;;4926853;28;20027;-85
2022/05/08 03:47:48;;;;;;;16.10;2.13;;;10.00;99.90;;;;;;4942920;28;20042;-85
2022/05/08 03:50:24;;;;;;;21.38;3.42;;;10.00;99.90;;;;;;4929334;28;20545;-85
2022/05/08 03:56:08;;;;;;;;;;;;;;;;;;;;;
2022/05/08 03:59:07;;;;;;;18.10;3.08;;;9.90;99.90;;;;;;4954895;28;20042;-78
2022/05/08 04:01:38;;;;;;;17.95;3.53;;;9.90;99.90;;;;;;4925480;28;20804;-87
2022/05/08 04:04:08;;;;;;;;;;;9.80;99.90;;;;;;4940473;28;20708;-87
2022/05/08 04:06:34;;;;;;;18.10;3.03;;;9.90;99.90;;;;;;4928240;28;19933;-87
2022/05/08 04:09:01;;;;;;;16.92;3.05;;;9.80;99.90;;;;;;4937440;28;20039;-88
2022/05/08 04:12:00;;;;;;;19.88;3.88;;;9.80;99.90;;;;;;4928801;28;20478;-87
2022/05/08 04:14:29;;;;;;;20.10;3.47;;;9.80;99.90;;;;;;4926274;28;20031;-87
2022/05/08 04:16:59;;;;;;;16.98;3.08;;;9.70;99.90;;;;;;4936167;28;20027;-87
2022/05/08 04:19:29;;;;;;;17.60;2.95;;;9.70;99.90;;;;;;4957135;28;20355;-88
2022/05/08 04:25:48;;;;;;;22.63;3.60;;;9.60;99.90;;;;;;4943236;28;20038;-87
2022/05/08 04:28:39;;;;;;;24.70;3.35;;;9.50;99.90;;;;;;4910501;28;20031;-87
2022/05/08 04:31:08;;;;;;;20.10;3.28;;;9.50;99.90;;;;;;4944667;28;20027;-86
2022/05/08 04:33:44;;;;;;;14.90;3.45;;;9.50;99.90;;;;;;4923607;28;20055;-86
2022/05/08 04:36:27;;;;;;;23.95;3.65;;;9.50;99.90;;;;;;4910443;28;20065;-87
2022/05/08 04:38:57;;;;;;;31.02;4.07;;;9.40;99.90;;;;;;4925932;28;20035;-87
2022/05/08 04:41:29;;;;;;;18.08;2.80;;;9.40;99.90;;;;;;4940991;28;20548;-87
2022/05/08 04:44:12;;;;;;;24.30;4.15;;;9.40;99.90;;;;;;4929992;28;20034;-87
2022/05/08 04:46:51;;;;;;;19.25;3.35;;;9.40;99.90;;;;;;4954759;28;20028;-87
2022/05/08 04:49:43;;;;;;;;;;;;;;;;;;;;;
2022/05/08 04:52:12;;;;;;;28.77;3.33;;;9.40;99.90;;;;;;4939439;28;20058;-87
2022/05/08 04:55:05;;;;;;;25.73;4.15;;;9.50;99.90;;;;;;4940100;28;20700;-88
2022/05/08 04:57:45;;;;;;;21.75;3.50;;;9.60;99.90;;;;;;4955914;28;20378;-87
2022/05/08 05:00:21;;;;;;;21.05;4.38;;;9.70;99.90;;;;;;4942577;28;20039;-87
2022/05/08 05:02:53;;;;;;;23.27;3.50;;;9.70;99.90;;;;;;4914775;29;20051;-87
2022/05/08 05:05:28;;;;;;;;;;;9.70;99.90;;;;;;4928091;29;20371;-86
2022/05/08 05:08:02;;;;;;;26.13;4.47;;;9.70;99.90;;;;;;4936673;29;19926;-87
2022/05/08 05:11:19;;;;;;;20.42;3.35;;;9.70;99.90;;;;;;4962325;28;20046;-93
2022/05/08 05:14:05;;;;;;;19.52;3.03;;;9.80;99.90;;;;;;4950418;28;20054;-93
2022/05/08 05:16:49;;;;;;;24.02;2.83;;;9.80;99.90;;;;;;4927739;29;20482;-94
2022/05/08 05:19:45;;;;;;;19.05;3.47;;;9.90;99.90;;;;;;4930982;29;20051;-93
2022/05/08 05:22:12;;;;;;;26.73;3.92;;;10.00;99.90;;;;;;4926232;29;20035;-93
2022/05/08 05:24:39;;;;;;;19.58;3.25;;;10.10;99.90;;;;;;4948123;29;20071;-86
2022/05/08 05:27:06;;;;;;;25.80;3.35;;;10.20;99.90;;;;;;4934214;29;20515;-95
2022/05/08 05:29:36;;;;;;;18.27;3.40;;;10.30;99.90;;;;;;4919119;29;20040;-94
2022/05/08 05:32:11;;;;;;;26.70;3.63;;;10.40;99.90;;;;;;4954967;28;20054;-94
2022/05/08 05:34:41;;;;;;;18.63;2.78;;;10.50;99.90;;;;;;4931392;29;20054;-94
2022/05/08 05:37:07;;;;;;;19.23;2.63;;;10.60;99.90;;;;;;4926419;29;20038;-94
2022/05/08 05:39:34;;;;;;;14.48;2.47;;;10.70;99.90;;;;;;4936071;29;20050;-94
2022/05/08 05:42:10;;;;;;;10.82;1.75;;;10.90;99.90;;;;;;4906901;29;20039;-93
2022/05/08 05:44:38;;;;;;;11.82;2.35;;;11.00;99.90;;;;;;4921100;29;20035;-83
2022/05/08 05:49:52;;;;;;;15.13;2.88;;;11.30;99.90;;;;;;4895689;29;20059;-90
2022/05/08 05:52:19;;;;;;;18.42;2.65;;;11.40;99.90;;;;;;4959720;28;20044;-88
2022/05/08 05:54:47;;;;;;;15.63;2.22;;;11.50;99.90;;;;;;4959337;28;20054;-93
2022/05/08 05:57:14;;;;;;;16.42;2.38;;;11.60;99.90;;;;;;4913420;28;20398;-91
2022/05/08 05:59:44;;;;;;;17.80;2.67;;;11.80;99.90;;;;;;4929878;29;20059;-91
2022/05/08 06:02:10;;;;;;;22.77;4.18;;;11.80;99.90;;;;;;4910750;29;20163;-82
2022/05/08 06:04:37;;;;;;;17.05;2.95;;;11.90;99.90;;;;;;4941907;28;20039;-81
2022/05/08 06:07:03;;;;;;;16.25;3.00;;;11.90;99.90;;;;;;4950239;28;20364;-82
2022/05/08 06:09:30;;;;;;;16.05;2.42;;;12.00;99.90;;;;;;4915413;29;20020;-80
2022/05/08 06:11:56;;;;;;;11.10;1.80;;;12.10;99.90;;;;;;4922225;29;20031;-82
2022/05/08 06:14:23;;;;;;;17.58;2.55;;;12.20;99.90;;;;;;4957311;28;20035;-82
2022/05/08 06:16:50;;;;;;;21.52;2.08;;;12.20;99.90;;;;;;4924930;29;20043;-82
2022/05/08 06:19:16;;;;;;;19.55;3.08;;;12.30;99.90;;;;;;4949292;28;20028;-82
2022/05/08 06:21:47;;;;;;;10.30;1.50;;;12.40;99.90;;;;;;4910783;29;20024;-82
2022/05/08 06:24:21;;;;;;;20.30;1.77;;;12.50;99.90;;;;;;4926846;29;20403;-82
2022/05/08 06:26:52;;;;;;;13.48;1.98;;;12.70;99.90;;;;;;4947109;28;20031;-92
2022/05/08 06:29:46;;;;;;;11.63;1.90;;;12.90;99.90;;;;;;4932441;29;20038;-92
2022/05/08 06:32:27;;;;;;;11.90;1.83;;;13.20;99.90;;;;;;4913863;29;20067;-91
2022/05/08 06:35:01;;;;;;;13.32;2.17;;;13.40;99.90;;;;;;4947084;28;20468;-92
2022/05/08 06:37:34;;;;;;;16.15;2.22;;;13.60;99.90;;;;;;4945214;28;20051;-92
2022/05/08 06:40:02;;;;;;;14.70;2.92;;;13.70;99.90;;;;;;4928906;29;20408;-91
2022/05/08 06:42:32;;;;;;;9.90;1.63;;;13.80;99.20;;;;;;4930740;29;20391;-83
2022/05/08 06:45:03;;;;;;;15.25;2.20;;;13.80;99.20;;;;;;4930379;29;20043;-82
2022/05/08 06:47:30;;;;;;;14.63;2.75;;;13.90;98.40;;;;;;4937028;29;20039;-83
2022/05/08 06:49:57;;;;;;;18.63;2.58;;;14.00;98.20;;;;;;4949153;28;20035;-83
2022/05/08 06:52:27;;;;;;;15.63;2.35;;;14.10;97.80;;;;;;4919497;29;20058;-83
2022/05/08 06:55:00;;;;;;;14.73;2.20;;;14.20;97.50;;;;;;4937730;29;20023;-83
2022/05/08 06:57:36;;;;;;;12.18;2.08;;;14.30;97.30;;;;;;4920303;29;20015;-83
2022/05/08 07:02:54;;;;;;;13.55;1.55;;;14.40;97.10;;;;;;4942544;28;20039;-81
2022/05/08 07:05:23;;;;;;;15.38;2.25;;;14.40;96.60;;;;;;4922211;29;20039;-85
2022/05/08 07:07:57;;;;;;;12.23;1.70;;;14.50;96.60;;;;;;4949594;28;20034;-84
2022/05/08 07:10:24;;;;;;;17.40;2.13;;;14.40;96.10;;;;;;4933299;29;20039;-85
2022/05/08 07:13:00;;;;;;;6.93;1.27;;;14.40;95.90;;;;;;4946022;28;20027;-86
2022/05/08 07:15:32;;;;;;;10.77;1.20;;;14.40;96.00;;;;;;4931553;29;20487;-85
2022/05/08 07:18:01;;;;;;;11.55;1.65;;;14.60;96.20;;;;;;4935209;28;20053;-85
2022/05/08 07:20:44;;;;;;;11.77;1.92;;;14.70;95.70;;;;;;4933494;29;20043;-83
2022/05/08 07:23:17;;;;;;;15.18;6.28;;;14.80;95.60;;;;;;4940315;29;20027;-85
2022/05/08 07:25:46;;;;;;;12.25;2.22;;;14.80;94.80;;;;;;4936705;29;20034;-85
2022/05/08 07:28:15;;;;;;;7.85;2.08;;;14.80;94.80;;;;;;4949581;28;20036;-86
2022/05/08 07:30:49;;;;;;;12.02;1.40;;;14.90;94.80;;;;;;4935264;29;20047;-84
2022/05/08 07:33:20;;;;;;;10.50;2.03;;;15.00;94.90;;;;;;4936759;29;20039;-83
2022/05/08 07:38:33;;;;;;;14.65;2.35;;;15.30;94.00;;;;;;4936547;29;20044;-84
2022/05/08 07:41:03;;;;;;;12.02;2.72;;;15.30;93.70;;;;;;4931515;29;20046;-82
2022/05/08 07:43:30;;;;;;;12.30;2.47;;;15.30;93.70;;;;;;4942085;29;20043;-85
2022/05/08 07:46:02;;;;;;;6.45;1.30;;;15.20;93.00;;;;;;4942939;28;20059;-88
2022/05/08 07:48:31;;;;;;;14.30;1.90;;;15.30;93.50;;;;;;4958730;28;20052;-83
2022/05/08 07:51:09;;;;;;;6.63;1.80;;;15.50;93.40;;;;;;4946604;28;20438;-84
2022/05/08 07:53:36;;;;;;;8.52;1.77;;;15.60;93.20;;;;;;4940366;29;20050;-83
2022/05/08 07:56:06;;;;;;;14.13;1.92;;;15.60;93.10;;;;;;4913537;29;20383;-89
2022/05/08 07:58:51;;;;;;;7.88;1.23;;;15.70;92.50;;;;;;4937868;29;20043;-87
2022/05/08 08:01:45;;;;;;;9.73;3.10;;;15.70;92.40;;;;;;4942586;28;20054;-88
2022/05/08 08:04:13;;;;;;;;;;;15.70;92.40;;;;;;4942466;28;20434;-88
2022/05/08 08:06:40;;;;;;;14.00;3.55;;;15.70;92.10;;;;;;4926063;28;19911;-87
2022/05/08 08:09:14;;;;;;;15.20;2.40;;;15.80;92.00;;;;;;4956850;28;20062;-85
2022/05/08 08:11:42;;;;;;;10.95;1.73;;;15.90;92.20;;;;;;4928369;28;20038;-85
2022/05/08 08:14:09;;;;;;;7.82;0.93;;;15.90;91.70;;;;;;4943922;28;20039;-87
2022/05/08 08:16:36;;;;;;;10.35;1.27;;;16.00;91.70;;;;;;4946656;28;20050;-85
2022/05/08 08:19:03;;;;;;;6.63;1.10;;;16.10;91.40;;;;;;4942390;28;20832;-77
2022/05/08 08:21:35;;;;;;;;;;;16.20;91.30;;;;;;4926098;28;20062;-77
2022/05/08 08:24:08;;;;;;;8.40;1.25;;;16.40;91.20;;;;;;4955204;28;19933;-77
2022/05/08 08:26:39;;;;;;;23.40;9.50;;;16.50;91.10;;;;;;4933825;28;20034;-76
2022/05/08 08:29:06;;;;;;;9.48;2.15;;;16.60;90.50;;;;;;4956257;28;20455;-77
2022/05/08 08:31:40;;;;;;;9.27;2.33;;;16.50;90.50;;;;;;4954949;28;20508;-77
2022/05/08 08:34:06;;;;;;;9.98;2.35;;;16.70;90.50;;;;;;4955550;28;20023;-75
2022/05/08 08:36:33;;;;;;;9.27;1.40;;;16.70;88.90;;;;;;4955039;28;20356;-75
2022/05/08 08:39:01;;;;;;;10.15;1.73;;;16.70;87.90;;;;;;4939259;28;20050;-75
2022/05/08 08:41:36;;;;;;;11.45;1.65;;;16.70;88.60;;;;;;4940511;28;20046;-76
2022/05/08 08:49:53;;;;;;;7.10;1.35;;;16.80;88.40;;;;;;4961325;28;20034;-76
2022/05/08 08:52:22;;;;;;;7.18;1.25;;;16.90;87.30;;;;;;4959612;28;20475;-76
2022/05/08 08:54:49;;;;;;;4.15;0.70;;;17.00;87.30;;;;;;4960057;28;20023;-78
2022/05/08 08:57:22;;;;;;;7.25;1.27;;;17.10;86.90;;;;;;4944722;28;20027;-77
2022/05/08 08:59:58;;;;;;;11.57;1.88;;;17.30;86.80;;;;;;4940434;28;20085;-77
2022/05/08 09:02:25;;;;;;;9.93;1.52;;;17.30;84.80;;;;;;4907667;29;20056;-85
2022/05/08 09:04:54;;;;;;;9.80;1.40;;;17.20;84.70;;;;;;4917692;29;20062;-85
2022/05/08 09:07:44;;;;;;;6.20;0.93;;;17.20;84.10;;;;;;4925124;29;20032;-77
2022/05/08 09:10:15;;;;;;;8.18;1.40;;;17.30;83.50;;;;;;4945523;28;20488;-77
2022/05/08 09:13:00;;;;;;;11.18;2.38;;;17.40;83.70;;;;;;4927015;29;20043;-76
2022/05/08 09:15:32;;;;;;;12.88;1.70;;;17.60;82.60;;;;;;4921136;29;20031;-77
2022/05/08 09:18:13;;;;;;;8.80;2.67;;;17.80;82.60;;;;;;4934903;29;20043;-77
2022/05/08 09:20:51;;;;;;;11.90;2.10;;;17.80;82.00;;;;;;4926241;29;20034;-82
2022/05/08 09:23:19;;;;;;;8.67;1.87;;;17.90;81.10;;;;;;4938974;29;20520;-84
2022/05/08 09:26:00;;;;;;;7.25;1.33;;;17.90;80.60;;;;;;4925173;29;20028;-76
2022/05/08 09:28:27;;;;;;;10.40;2.15;;;17.90;80.40;;;;;;4927580;29;20023;-77
2022/05/08 09:31:19;;;;;;;7.40;1.38;;;18.00;80.60;;;;;;4921767;29;20484;-77
2022/05/08 09:33:58;;;;;;;8.82;1.58;;;18.00;79.90;;;;;;4910106;29;20051;-76
2022/05/08 09:36:42;;;;;;;10.18;1.80;;;18.20;78.70;;;;;;4899467;29;20055;-76
2022/05/08 09:39:22;;;;;;;4.50;1.02;;;18.20;78.70;;;;;;4924407;29;20056;-76
2022/05/08 09:41:49;;;;;;;7.32;1.52;;;18.30;78.90;;;;;;4923364;29;20047;-75
2022/05/08 09:44:20;;;;;;;7.68;1.48;;;18.40;78.30;;;;;;4920977;29;20043;-75
2022/05/08 09:46:51;;;;;;;4.80;0.93;;;18.40;77.50;;;;;;4912206;29;20032;-75
2022/05/08 09:49:23;;;;;;;7.93;1.45;;;18.50;76.50;;;;;;4937502;29;20051;-74
2022/05/08 09:52:08;;;;;;;5.78;0.90;;;18.60;76.80;;;;;;4904974;29;20117;-76
2022/05/08 09:54:35;;;;;;;6.85;1.10;;;18.70;75.80;;;;;;4921074;29;20408;-77
2022/05/08 09:57:04;;;;;;;7.50;1.40;;;18.70;75.00;;;;;;4918347;29;20043;-77
2022/05/08 09:59:33;;;;;;;7.47;1.40;;;18.70;73.80;;;;;;4925185;28;20047;-76
2022/05/08 10:02:03;;;;;;;3.88;1.13;;;18.70;73.40;;;;;;4959795;28;20046;-79
2022/05/08 10:04:35;;;;;;;6.18;1.08;;;18.70;74.20;;;;;;4949835;28;20051;-83
2022/05/08 10:07:16;;;;;;;7.68;1.10;;;18.80;74.20;;;;;;4928517;28;20047;-82
2022/05/08 10:15:35;;;;;;;6.10;1.10;;;19.20;73.30;;;;;;4951615;28;20038;-85
2022/05/08 10:18:31;;;;;;;4.88;0.90;;;19.40;72.70;;;;;;4959492;28;20042;-76
2022/05/08 10:21:05;;;;;;;4.93;0.90;;;19.60;71.60;;;;;;4923890;28;20411;-77
2022/05/08 10:23:39;;;;;;;8.35;1.30;;;19.70;70.30;;;;;;4945699;28;20034;-75
2022/05/08 10:26:20;;;;;;;10.23;1.98;;;19.80;70.80;;;;;;4913728;28;20058;-78
2022/05/08 10:29:02;;;;;;;9.40;1.92;;;20.00;70.10;;;;;;4928292;28;20042;-75
2022/05/08 10:31:51;;;;;;;7.22;1.52;;;20.10;70.30;;;;;;4958527;28;20031;-75
2022/05/08 10:34:32;;;;;;;7.78;1.60;;;20.40;70.00;;;;;;4942094;28;20030;-78
2022/05/08 10:37:13;;;;;;;7.85;1.05;;;20.60;68.10;;;;;;4938228;28;20042;-78
2022/05/08 10:39:43;;;;;;;9.30;2.42;;;20.80;67.60;;;;;;4958547;28;20057;-75
2022/05/08 10:42:28;;;;;;;6.75;1.77;;;21.10;66.60;;;;;;4928023;28;20047;-76
2022/05/08 10:44:55;;;;;;;7.28;2.05;;;21.10;64.90;;;;;;4928618;28;20045;-78
2022/05/08 10:47:36;;;;;;;4.13;1.23;;;21.30;64.90;;;;;;4960420;28;20580;-76
2022/05/08 10:50:11;;;;;;;;;;;21.70;64.70;;;;;;4930483;28;20042;-81
2022/05/08 10:52:41;;;;;;;6.05;1.33;;;22.00;63.60;;;;;;4935757;28;19910;-80
2022/05/08 10:55:14;;;;;;;4.55;1.13;;;22.20;62.10;;;;;;4948521;28;20506;-82
2022/05/08 10:57:43;;;;;;;7.93;2.35;;;22.20;62.20;;;;;;4915863;28;20031;-80
2022/05/08 11:00:12;;;;;;;12.10;5.75;;;22.20;61.90;;;;;;4932063;29;20670;-81
2022/05/08 11:02:43;;;;;;;7.03;1.40;;;22.30;61.80;;;;;;4910852;29;20044;-78
2022/05/08 11:05:24;;;;;;;7.77;1.43;;;22.50;59.80;;;;;;4924285;29;20035;-80
2022/05/08 11:08:01;;;;;;;7.20;1.25;;;22.60;60.20;;;;;;4892253;29;20046;-79
2022/05/08 11:10:33;;;;;;;5.82;1.10;;;23.00;58.70;;;;;;4907043;29;20035;-77
2022/05/08 11:13:06;;;;;;;4.28;1.10;;;23.10;56.60;;;;;;4911194;29;20031;-77
2022/05/08 11:15:37;;;;;;;5.20;1.00;;;23.20;57.20;;;;;;4919938;29;20032;-81
2022/05/08 11:18:09;;;;;;;4.83;1.00;;;23.40;55.20;;;;;;4902821;29;20039;-81
2022/05/08 11:20:50;;;;;;;6.40;1.10;;;23.70;53.80;;;;;;4886809;29;20280;-82
2022/05/08 11:23:59;;;;;;;8.10;1.38;;;23.80;53.70;;;;;;4921044;29;20051;-77
2022/05/08 11:26:34;;;;;;;6.97;1.20;;;24.30;53.50;;;;;;4920321;29;20039;-79
2022/05/08 11:29:04;;;;;;;8.98;1.42;;;24.70;52.00;;;;;;4932449;28;20157;-82
2022/05/08 11:36:04;;;;;;;16.83;1.90;;;24.90;53.00;;;;;;4919749;29;20036;-84
2022/05/08 11:37:28;;;;;;;5.32;1.00;;;25.40;51.20;;;;;;4871475;29;20058;-82
2022/05/08 11:39:55;;;;;;;5.75;0.98;;;25.60;49.40;;;;;;4924318;29;20044;-78
2022/05/08 11:42:22;;;;;;;3.55;1.05;;;25.70;48.00;;;;;;4895406;29;20050;-85
2022/05/08 11:45:07;;;;;;;5.38;1.00;;;25.80;48.10;;;;;;4906631;29;20525;-88
2022/05/08 11:47:48;;;;;;;7.35;1.33;;;26.20;47.50;;;;;;4921097;29;20044;-85
2022/05/08 11:50:23;;;;;;;6.63;0.98;;;26.40;45.40;;;;;;4924578;29;20492;-84
2022/05/08 11:53:14;;;;;;;7.13;1.17;;;26.40;45.80;;;;;;4909140;29;20039;-85
2022/05/08 11:55:50;;;;;;;7.28;1.10;;;26.40;46.00;;;;;;4923953;29;20040;-87
2022/05/08 11:58:47;;;;;;;4.68;1.02;;;26.70;45.70;;;;;;4910735;29;20039;-86
2022/05/08 12:01:57;;;;;;;3.78;0.80;;;27.00;45.20;;;;;;4923166;29;20074;-88
2022/05/08 12:04:55;;;;;;;6.03;1.30;;;26.90;45.40;;;;;;4943901;28;20035;-86
2022/05/08 12:07:25;;;;;;;7.80;1.85;;;27.20;45.50;;;;;;4943025;28;20054;-87
2022/05/08 12:10:13;;;;;;;5.72;1.00;;;27.90;44.70;;;;;;4928006;29;20039;-86
2022/05/08 12:13:33;;;;;;;;;;;;;;;;;;;;;
2022/05/08 12:16:41;;;;;;;4.75;0.90;;;28.30;42.60;;;;;;4892517;29;20062;-87
2022/05/08 12:19:28;;;;;;;3.25;0.93;;;28.40;42.40;;;;;;4942976;28;20051;-78
2022/05/08 12:22:32;;;;;;;4.38;0.88;;;28.70;41.50;;;;;;4954698;28;20037;-81
2022/05/08 12:25:23;;;;;;;6.22;1.17;;;29.00;40.50;;;;;;4943702;28;20055;-81
2022/05/08 12:28:13;;;;;;;2.83;1.00;;;29.10;39.40;;;;;;4939443;29;20043;-83
2022/05/08 12:30:59;;;;;;;3.90;0.88;;;29.30;39.60;;;;;;4900512;29;20480;-84
2022/05/08 12:33:29;;;;;;;3.07;0.67;;;29.40;40.20;;;;;;4905294;29;20048;-84
2022/05/08 12:35:59;;;;;;;3.53;1.13;;;29.60;39.20;;;;;;4890384;29;20295;-84
2022/05/08 12:38:34;;;;;;;4.15;0.90;;;29.80;38.80;;;;;;4903230;29;20056;-86
2022/05/08 12:41:05;;;;;;;4.40;0.93;;;30.10;37.40;;;;;;4859746;29;20610;-85
2022/05/08 12:43:34;;;;;;;5.47;0.98;;;29.80;38.00;;;;;;4880443;29;20040;-82
2022/05/08 12:46:04;;;;;;;4.35;0.95;;;30.00;37.70;;;;;;4906435;29;20056;-83
2022/05/08 12:48:31;;;;;;;3.08;0.60;;;30.00;37.40;;;;;;4878297;29;20055;-85
2022/05/08 12:50:58;;;;;;;3.60;0.70;;;30.30;37.70;;;;;;4873875;29;20423;-83
2022/05/08 12:53:33;;;;;;;6.78;1.70;;;30.80;37.50;;;;;;4892086;29;20044;-82
2022/05/08 12:56:34;;;;;;;5.00;1.23;;;31.00;36.40;;;;;;4890440;29;20040;-81
2022/05/08 12:59:52;;;;;;;4.55;0.80;;;31.30;36.20;;;;;;4892714;29;20048;-80
2022/05/08 13:02:57;;;;;;;3.88;0.80;;;30.90;35.90;;;;;;4831436;29;20405;-79
2022/05/08 13:10:00;;;;;;;3.38;0.80;;;31.50;36.30;;;;;;4923411;28;20058;-79
2022/05/08 13:12:27;;;;;;;4.65;1.10;;;31.70;35.00;;;;;;4939609;29;20051;-83
2022/05/08 13:15:25;;;;;;;5.40;1.00;;;31.40;34.70;;;;;;4953256;28;20506;-85
2022/05/08 13:17:52;;;;;;;4.13;0.70;;;31.40;34.80;;;;;;4957852;28;20038;-85
2022/05/08 13:20:27;;;;;;;9.20;5.65;;;31.50;35.20;;;;;;4939077;29;20044;-86
2022/05/08 13:22:54;;;;;;;6.03;1.73;;;31.80;35.10;;;;;;4933880;29;20042;-87
2022/05/08 13:25:30;;;;;;;4.80;1.08;;;32.10;34.80;;;;;;4928648;29;20043;-85
2022/05/08 13:27:57;;;;;;;3.85;0.63;;;32.20;34.20;;;;;;4913544;29;20039;-82
2022/05/08 13:30:23;;;;;;;4.60;1.20;;;32.50;33.80;;;;;;4956126;28;20046;-83
2022/05/08 13:32:50;;;;;;;8.70;4.20;;;32.50;32.90;;;;;;4928785;29;20051;-84
2022/05/08 13:35:18;;;;;;;7.55;2.22;;;32.40;33.90;;;;;;4930072;29;20035;-83
2022/05/08 13:37:44;;;;;;;5.07;1.23;;;32.60;33.50;;;;;;4947059;29;20051;-84
2022/05/08 13:40:11;;;;;;;4.45;0.70;;;32.90;33.60;;;;;;4941390;29;20039;-84
2022/05/08 13:42:37;;;;;;;3.45;0.75;;;33.10;32.40;;;;;;4946261;29;20039;-84
2022/05/08 13:45:05;;;;;;;5.20;0.70;;;32.90;32.50;;;;;;4929170;29;20035;-85
2022/05/08 13:47:32;;;;;;;3.88;0.88;;;32.90;32.40;;;;;;4896361;29;20364;-84
2022/05/08 13:50:00;;;;;;;4.70;0.90;;;32.90;32.10;;;;;;4943204;28;20050;-84
2022/05/08 13:52:28;;;;;;;3.70;1.00;;;33.20;32.10;;;;;;4928988;29;20032;-86
2022/05/08 13:54:54;;;;;;;2.90;0.70;;;33.70;32.10;;;;;;4957831;28;20035;-83
2022/05/08 13:57:21;;;;;;;5.25;0.88;;;33.90;31.10;;;;;;4898875;29;20392;-80
2022/05/08 13:59:49;;;;;;;3.47;0.80;;;33.90;30.80;;;;;;4940719;29;20048;-81
2022/05/08 14:02:16;;;;;;;2.15;0.60;;;34.10;30.80;;;;;;4929663;29;20044;-81
2022/05/08 14:04:43;;;;;;;4.32;0.73;;;33.90;30.10;;;;;;4956812;28;20035;-83
2022/05/08 14:07:11;;;;;;;6.05;3.63;;;34.00;30.80;;;;;;4910338;29;20051;-80
2022/05/08 14:09:37;;;;;;;4.68;0.82;;;34.20;30.30;;;;;;4956317;28;20498;-82
2022/05/08 14:12:04;;;;;;;3.70;1.00;;;34.40;30.50;;;;;;4936648;29;20054;-81
2022/05/08 14:14:31;;;;;;;4.13;0.70;;;34.60;30.70;;;;;;4926105;29;20043;-82
2022/05/08 14:16:59;;;;;;;2.40;0.60;;;34.90;30.00;;;;;;4930367;29;20050;-82
2022/05/08 14:19:26;;;;;;;2.80;0.70;;;34.80;30.10;;;;;;4943967;28;20050;-82
2022/05/08 14:22:02;;;;;;;3.72;0.70;;;34.80;30.00;;;;;;4939803;29;20038;-84
2022/05/08 14:24:31;;;;;;;4.15;0.60;;;34.80;30.20;;;;;;4942609;29;20487;-82
2022/05/08 14:27:02;;;;;;;3.03;0.60;;;34.70;29.90;;;;;;4958177;28;20063;-85
2022/05/08 14:29:38;;;;;;;3.22;0.60;;;34.50;30.00;;;;;;4947243;28;20502;-84
2022/05/08 14:37:40;;;;;;;3.25;0.70;;;33.60;29.70;;;;;;4936837;29;20035;-84
2022/05/08 14:40:20;;;;;;;3.30;1.10;;;31.90;29.80;;;;;;4923003;29;20039;-84
2022/05/08 14:43:06;;;;;;;3.97;0.85;;;30.10;31.30;;;;;;4941662;29;20035;-85
2022/05/08 14:45:36;;;;;;;3.33;0.88;;;28.60;32.20;;;;;;4943674;29;20050;-84
2022/05/08 14:48:04;;;;;;;4.60;0.70;;;27.40;33.30;;;;;;4926416;29;20046;-84
2022/05/08 14:50:35;;;;;;;3.67;0.95;;;26.70;33.50;;;;;;4951562;28;20376;-83
2022/05/08 14:53:27;;;;;;;1.90;0.50;;;27.30;33.00;;;;;;4952626;28;20619;-83
2022/05/08 14:55:55;;;;;;;2.40;0.60;;;28.80;32.20;;;;;;4942873;29;21294;-83
2022/05/08 14:58:23;;;;;;;4.53;0.85;;;30.00;31.20;;;;;;4954607;28;20028;-84